Meath Environmental Platform

Observations for Trim Patrick St

Time AQI Temp °C Hum % Pres Pa CO μg/m³ H₂S μg/m³ NO μg/m³ NO₂ μg/m³ O₃ μg/m³ SO₂ μg/m³ PM1 μg/m³ PM2.5 μg/m³ PM10 μg/m³
Sunday 9 August 2026
03:53 2 18.6 68 78,169 0 0 2.17 12.02 41.02 0 2.86 6.04 6.64
03:52 2 18.6 66 78,222 0 0 2.35 10.67 39.04 0 2 6.12 6.73
03:51 2 18.6 67 78,279 0.01 0 2.14 11.08 41.53 0 2.86 6.77 7.45
03:50 2 18.6 68 78,346 0 0 2.28 11.84 38.37 0 2 6.03 6.63
03:49 2 18.6 68 78,381 0 0 2.24 12.11 37.55 0 2 6.04 6.64
03:48 2 18.7 68 78,428 0 0 2.14 12.27 45.28 0 2 6.02 6.63
03:47 2 18.6 68 78,484 0 0 2.05 10.96 40.15 0 2 6.03 6.63
03:46 2 18.6 67 78,547 0 0 2.27 11.97 42.54 0 2.86 6.78 7.46
03:45 2 18.6 68 78,619 0 0 2.16 12.62 37.01 0 2.86 6.04 6.64
03:44 2 18.7 68 78,684 0 0 2.2 12.41 37.89 0 3.71 7.48 8.23
03:43 2 18.6 68 78,749 0 0 2.22 11 40.97 0 2.86 6.75 7.42
03:42 2 18.6 68 78,816 0 0 2.2 12.82 39.37 0 2.86 6.75 7.42
03:41 2 18.6 68 78,853 0.01 0 1.99 12.11 42.26 0 2.86 6.04 6.64
03:40 2 18.6 68 78,875 0 0.33 1.9 18.77 47.24 0 2.86 6.76 7.43
03:39 2 18.6 68 78,948 0 0 1.75 12.23 39.7 0 2 5.3 5.83
03:38 2 18.6 68 79,017 0 0 1.72 13.36 46.52 0 2.86 6.76 7.43
03:37 2 18.6 68 79,084 0 0 1.72 12.55 39.57 0 2.86 6.76 7.43
03:36 2 18.7 67 79,146 0.01 0 1.77 12.93 41.77 0 2 6.05 6.65
03:35 2 18.6 67 79,205 0 0 2.09 11.93 34.61 0 2.86 6.07 6.68
03:34 2 18.6 68 79,312 0 0 1.9 11.78 43.6 0 2.86 6.74 7.42